createdAt,value
2019-05-28T00:00:21.982Z,11.90
2019-05-28T00:02:51.376Z,11.80
2019-05-28T00:05:20.734Z,11.90
2019-05-28T00:07:49.945Z,11.80
2019-05-28T00:10:19.095Z,11.90
2019-05-28T00:12:48.276Z,11.90
2019-05-28T00:15:17.720Z,11.90
2019-05-28T00:17:46.687Z,11.80
2019-05-28T00:20:16.039Z,11.80
2019-05-28T00:22:45.002Z,11.80
2019-05-28T00:25:14.855Z,11.80
2019-05-28T00:27:43.830Z,11.80
2019-05-28T00:30:19.646Z,11.70
2019-05-28T00:32:43.969Z,11.70
2019-05-28T00:35:13.407Z,11.60
2019-05-28T00:37:42.435Z,11.50
2019-05-28T00:40:12.368Z,11.50
2019-05-28T00:42:41.667Z,11.40
2019-05-28T00:45:11.519Z,11.40
2019-05-28T00:47:40.681Z,11.30
2019-05-28T00:50:11.159Z,11.20
2019-05-28T00:52:40.426Z,11.20
2019-05-28T00:55:10.011Z,11.30
2019-05-28T00:57:43.202Z,11.20
2019-05-28T01:00:12.992Z,11.30
2019-05-28T01:02:42.095Z,11.40
2019-05-28T01:05:11.204Z,11.50
2019-05-28T01:07:40.234Z,11.50
2019-05-28T01:10:09.995Z,11.50
2019-05-28T01:12:38.983Z,11.50
2019-05-28T01:15:09.430Z,11.60
2019-05-28T01:17:38.551Z,11.50
2019-05-28T01:20:08.145Z,11.50
2019-05-28T01:22:37.317Z,11.60
2019-05-28T01:25:07.048Z,11.50
2019-05-28T01:27:35.923Z,11.50
2019-05-28T01:30:05.994Z,11.60
2019-05-28T01:32:34.960Z,11.70
2019-05-28T01:35:04.284Z,11.60
2019-05-28T01:37:33.244Z,11.60
2019-05-28T01:40:02.418Z,11.60
2019-05-28T01:42:31.396Z,11.60
2019-05-28T01:45:00.384Z,11.40
2019-05-28T01:47:29.496Z,11.30
2019-05-28T01:49:58.510Z,11.30
2019-05-28T01:52:27.615Z,11.40
2019-05-28T01:54:56.670Z,11.40
2019-05-28T01:57:25.705Z,11.50
2019-05-28T01:59:54.765Z,11.50
2019-05-28T02:02:23.837Z,11.50
2019-05-28T02:04:53.199Z,11.60
2019-05-28T02:07:22.183Z,11.60
2019-05-28T02:09:51.146Z,11.60
2019-05-28T02:12:20.631Z,11.60
2019-05-28T02:14:49.627Z,11.60
2019-05-28T02:17:18.667Z,11.60
2019-05-28T02:19:47.757Z,11.60
2019-05-28T02:22:16.749Z,11.60
2019-05-28T02:24:45.719Z,11.60
2019-05-28T02:27:14.701Z,11.60
2019-05-28T02:29:43.662Z,11.60
2019-05-28T02:32:12.595Z,11.60
2019-05-28T02:34:43.246Z,11.50
2019-05-28T02:37:12.325Z,11.50
2019-05-28T02:39:41.279Z,11.60
2019-05-28T02:42:10.354Z,11.50
2019-05-28T02:44:39.352Z,11.50
2019-05-28T02:47:08.366Z,11.50
2019-05-28T02:49:37.337Z,11.40
2019-05-28T02:52:06.412Z,11.40
2019-05-28T02:54:35.488Z,11.40
2019-05-28T02:57:04.619Z,11.40
2019-05-28T02:59:34.658Z,11.50
2019-05-28T03:02:05.023Z,11.40
2019-05-28T03:04:37.641Z,11.50
2019-05-28T03:07:09.086Z,11.50
2019-05-28T03:09:40.360Z,11.50
2019-05-28T03:12:09.335Z,11.50
2019-05-28T03:14:38.323Z,11.50
2019-05-28T03:17:08.178Z,11.50
2019-05-28T03:19:38.439Z,11.50
2019-05-28T03:22:08.933Z,11.50
2019-05-28T03:24:40.155Z,11.50
2019-05-28T03:27:09.230Z,11.50
2019-05-28T03:29:38.208Z,11.60
2019-05-28T03:32:09.102Z,11.40
2019-05-28T03:34:41.790Z,11.40
2019-05-28T03:37:10.406Z,11.40
2019-05-28T03:39:41.276Z,11.50
2019-05-28T03:42:10.366Z,11.60
2019-05-28T03:44:39.352Z,11.60
2019-05-28T03:47:08.252Z,11.60
2019-05-28T03:49:37.298Z,11.70
2019-05-28T03:52:06.291Z,11.70
2019-05-28T03:54:35.279Z,11.70
2019-05-28T03:57:04.347Z,11.70
2019-05-28T03:59:33.679Z,11.70
2019-05-28T04:02:02.775Z,11.70
2019-05-28T04:04:31.880Z,11.70
2019-05-28T04:07:00.887Z,11.60
2019-05-28T04:09:33.700Z,11.70
2019-05-28T04:12:00.834Z,11.70
2019-05-28T04:14:29.738Z,11.70
2019-05-28T04:16:58.826Z,11.80
2019-05-28T04:19:27.806Z,11.80
2019-05-28T04:21:56.770Z,11.80
2019-05-28T04:24:25.665Z,11.90
2019-05-28T04:26:54.682Z,11.90
2019-05-28T04:29:23.588Z,11.90
2019-05-28T04:31:52.645Z,12.00
2019-05-28T04:34:21.889Z,12.00
2019-05-28T04:36:50.894Z,12.00
2019-05-28T04:39:19.874Z,12.00
2019-05-28T04:41:48.862Z,12.00
2019-05-28T04:44:17.791Z,12.00
2019-05-28T04:46:46.852Z,12.10
2019-05-28T04:49:15.774Z,12.10
2019-05-28T04:51:44.742Z,12.20
2019-05-28T04:54:13.832Z,12.20
2019-05-28T04:56:42.723Z,12.20
2019-05-28T04:59:11.751Z,12.30
2019-05-28T05:01:40.688Z,12.30
2019-05-28T05:04:09.671Z,12.40
2019-05-28T05:06:38.744Z,12.40
2019-05-28T05:09:08.252Z,12.50
2019-05-28T05:11:37.149Z,12.50
2019-05-28T05:14:06.154Z,12.50
2019-05-28T05:16:35.131Z,12.60
2019-05-28T05:19:04.289Z,12.60
2019-05-28T05:21:35.642Z,12.70
2019-05-28T05:24:04.240Z,12.80
2019-05-28T05:26:33.269Z,12.80
2019-05-28T05:29:02.299Z,12.80
2019-05-28T05:31:31.286Z,12.90
2019-05-28T05:34:00.283Z,12.90
2019-05-28T05:36:29.381Z,13.00
2019-05-28T05:38:58.561Z,13.10
2019-05-28T05:41:27.643Z,13.20
2019-05-28T05:43:56.630Z,13.40
2019-05-28T05:46:27.494Z,13.50
2019-05-28T05:48:56.421Z,13.60
2019-05-28T05:51:25.548Z,13.60
2019-05-28T05:53:54.495Z,13.70
2019-05-28T05:56:23.563Z,13.90
2019-05-28T05:58:52.625Z,14.00
2019-05-28T06:01:21.742Z,14.00
2019-05-28T06:03:50.662Z,14.10
2019-05-28T06:06:19.695Z,14.10
2019-05-28T06:08:48.682Z,14.20
2019-05-28T06:11:18.060Z,14.30
2019-05-28T06:13:47.115Z,14.50
2019-05-28T06:16:16.107Z,14.70
2019-05-28T06:18:45.142Z,14.70
2019-05-28T06:21:18.216Z,14.70
2019-05-28T06:23:44.954Z,14.70
2019-05-28T06:26:14.028Z,14.70
2019-05-28T06:28:42.991Z,14.70
2019-05-28T06:31:12.040Z,14.60
2019-05-28T06:33:55.692Z,14.60
2019-05-28T06:36:11.771Z,14.50
2019-05-28T06:38:40.717Z,14.60
2019-05-28T06:41:09.936Z,14.60
2019-05-28T06:43:39.031Z,14.80
2019-05-28T06:46:08.085Z,14.90
2019-05-28T06:48:37.168Z,15.00
2019-05-28T06:51:06.401Z,15.20
2019-05-28T06:53:35.570Z,15.30
2019-05-28T06:56:04.718Z,15.40
2019-05-28T06:58:39.219Z,15.50
2019-05-28T07:01:04.735Z,15.60
2019-05-28T07:03:34.048Z,15.80
2019-05-28T07:06:07.110Z,16.10
2019-05-28T07:08:33.800Z,16.30
2019-05-28T07:11:02.913Z,16.60
2019-05-28T07:13:31.853Z,16.90
2019-05-28T07:16:00.815Z,17.20
2019-05-28T07:18:29.985Z,17.30
2019-05-28T07:20:58.989Z,17.30
2019-05-28T07:23:28.038Z,17.30
2019-05-28T07:25:57.209Z,17.20
2019-05-28T07:28:26.266Z,17.30
2019-05-28T07:30:55.433Z,17.70
2019-05-28T07:33:24.557Z,18.30
2019-05-28T07:35:53.627Z,19.10
2019-05-28T07:38:22.606Z,19.20
2019-05-28T07:40:51.607Z,18.90
2019-05-28T07:43:20.839Z,18.60
2019-05-28T07:45:50.100Z,18.30
2019-05-28T07:48:21.429Z,18.50
2019-05-28T07:50:50.554Z,18.40
2019-05-28T07:53:19.639Z,18.30
2019-05-28T07:55:48.795Z,18.00
2019-05-28T07:58:17.942Z,17.60
2019-05-28T08:00:47.140Z,17.30
2019-05-28T08:03:16.241Z,17.70
2019-05-28T08:05:45.531Z,18.30
2019-05-28T08:08:18.030Z,19.10
2019-05-28T08:10:47.031Z,19.70
2019-05-28T08:13:16.071Z,20.40
2019-05-28T08:15:45.196Z,20.90
2019-05-28T08:18:14.316Z,21.10
2019-05-28T08:20:43.282Z,21.40
2019-05-28T08:23:12.381Z,21.60
2019-05-28T08:25:47.139Z,21.90
2019-05-28T08:28:19.906Z,22.00
2019-05-28T08:30:43.249Z,21.90
2019-05-28T08:33:12.299Z,21.90
2019-05-28T08:35:41.421Z,21.90
2019-05-28T08:38:10.640Z,22.00
2019-05-28T08:40:39.670Z,22.20
2019-05-28T08:43:08.847Z,22.00
2019-05-28T08:45:37.982Z,21.60
2019-05-28T08:48:06.976Z,21.00
2019-05-28T08:50:36.071Z,20.90
2019-05-28T08:53:05.263Z,21.00
2019-05-28T08:55:34.259Z,21.40
2019-05-28T08:58:03.299Z,21.50
2019-05-28T09:00:40.282Z,21.70
2019-05-28T09:03:09.900Z,21.90
2019-05-28T09:05:39.164Z,22.10
2019-05-28T09:08:08.590Z,22.30
2019-05-28T09:10:37.580Z,22.50
2019-05-28T09:13:06.734Z,22.70
2019-05-28T09:15:36.088Z,22.70
2019-05-28T09:18:05.447Z,22.60
2019-05-28T09:20:34.726Z,22.10
2019-05-28T09:23:03.927Z,22.30
2019-05-28T09:25:33.243Z,22.40
2019-05-28T09:28:02.256Z,22.70
2019-05-28T09:30:31.556Z,23.00
2019-05-28T09:33:00.770Z,23.20
2019-05-28T09:35:44.073Z,23.30
2019-05-28T09:38:03.004Z,23.40
2019-05-28T09:40:48.573Z,23.30
2019-05-28T09:43:02.844Z,23.50
2019-05-28T09:45:31.843Z,23.80
2019-05-28T09:48:01.033Z,23.80
2019-05-28T09:50:31.316Z,24.00
2019-05-28T09:53:00.601Z,23.70
2019-05-28T09:55:34.635Z,23.20
2019-05-28T09:58:03.885Z,22.80
2019-05-28T10:00:36.682Z,22.40
2019-05-28T10:03:06.382Z,22.10
2019-05-28T10:05:35.573Z,22.00
2019-05-28T10:08:04.815Z,22.10
2019-05-28T10:10:37.088Z,22.30
2019-05-28T10:13:06.838Z,22.60
2019-05-28T10:15:35.928Z,22.70
2019-05-28T10:18:05.074Z,22.80
2019-05-28T10:20:37.761Z,22.80
2019-05-28T10:23:04.971Z,22.90
2019-05-28T10:25:34.151Z,22.90
2019-05-28T10:28:03.200Z,22.90
2019-05-28T10:30:32.322Z,23.00
2019-05-28T10:33:02.263Z,23.10
2019-05-28T10:35:31.373Z,23.20
2019-05-28T10:38:00.486Z,23.50
2019-05-28T10:40:29.591Z,23.60
2019-05-28T10:42:58.605Z,23.70
2019-05-28T10:45:28.252Z,23.80
2019-05-28T10:47:57.387Z,23.80
2019-05-28T10:50:26.359Z,23.60
2019-05-28T10:52:55.357Z,23.20
2019-05-28T10:55:24.471Z,22.70
2019-05-28T10:57:53.547Z,22.20
2019-05-28T11:00:22.891Z,21.90
2019-05-28T11:02:51.937Z,21.70
2019-05-28T11:05:21.442Z,21.60
2019-05-28T11:07:50.836Z,21.60
2019-05-28T11:10:24.368Z,21.80
2019-05-28T11:12:51.311Z,21.60
2019-05-28T11:15:23.815Z,21.40
2019-05-28T11:17:52.092Z,21.20
2019-05-28T11:20:21.954Z,21.00
2019-05-28T11:22:51.179Z,20.90
2019-05-28T11:25:22.599Z,20.80
2019-05-28T11:27:51.775Z,20.70
2019-05-28T11:30:21.540Z,20.60
2019-05-28T11:32:50.661Z,20.40
2019-05-28T11:35:20.306Z,20.30
2019-05-28T11:37:49.417Z,20.20
2019-05-28T11:40:20.245Z,20.20
2019-05-28T11:42:49.499Z,20.20
2019-05-28T11:45:19.154Z,20.20
2019-05-28T11:47:50.883Z,20.20
2019-05-28T11:50:19.312Z,20.20
2019-05-28T11:52:48.423Z,20.20
2019-05-28T11:55:19.017Z,20.10
2019-05-28T11:57:48.081Z,20.20
2019-05-28T12:00:18.100Z,20.40
2019-05-28T12:02:47.264Z,20.70
2019-05-28T12:05:19.408Z,20.80
2019-05-28T12:07:51.683Z,21.10
2019-05-28T12:10:19.838Z,21.20
2019-05-28T12:12:49.047Z,21.20
2019-05-28T12:15:18.799Z,21.00
2019-05-28T12:17:47.982Z,20.70
2019-05-28T12:20:19.463Z,20.50
2019-05-28T12:22:48.619Z,20.30
2019-05-28T12:25:18.679Z,20.20
2019-05-28T12:27:47.759Z,20.20
2019-05-28T12:30:19.666Z,20.20
2019-05-28T12:32:48.749Z,20.10
2019-05-28T12:35:28.466Z,20.00
2019-05-28T12:37:50.690Z,20.00
2019-05-28T12:40:23.901Z,20.10
2019-05-28T12:42:54.102Z,20.10
2019-05-28T12:45:35.101Z,20.00
2019-05-28T12:48:09.524Z,19.90
2019-05-28T12:50:26.489Z,19.70
2019-05-28T12:52:55.692Z,19.60
2019-05-28T12:55:24.948Z,19.30
2019-05-28T12:57:53.901Z,19.30
2019-05-28T13:00:23.607Z,19.20
2019-05-28T13:02:52.601Z,19.20
2019-05-28T13:05:23.666Z,19.30
2019-05-28T13:08:07.359Z,19.40
2019-05-28T13:10:23.721Z,19.60
2019-05-28T13:12:52.873Z,19.60
2019-05-28T13:15:22.075Z,19.60
2019-05-28T13:17:51.280Z,19.50
2019-05-28T13:20:26.467Z,19.50
2019-05-28T13:22:55.561Z,19.50
2019-05-28T13:25:24.717Z,19.60
2019-05-28T13:27:53.731Z,19.60
2019-05-28T13:30:23.107Z,19.60
2019-05-28T13:32:52.511Z,19.50
2019-05-28T13:35:22.479Z,19.30
2019-05-28T13:37:52.032Z,19.10
2019-05-28T13:40:21.660Z,19.10
2019-05-28T13:42:50.976Z,19.10
2019-05-28T13:45:20.445Z,19.00
2019-05-28T13:47:49.529Z,19.00
2019-05-28T13:50:19.484Z,18.90
2019-05-28T13:52:48.686Z,18.80
2019-05-28T13:55:17.812Z,18.80
2019-05-28T13:57:46.951Z,18.90
2019-05-28T14:00:18.174Z,18.80
2019-05-28T14:02:47.324Z,18.80
2019-05-28T14:05:19.878Z,18.70
2019-05-28T14:07:48.892Z,18.70
2019-05-28T14:10:18.351Z,18.60
2019-05-28T14:12:47.567Z,18.50
2019-05-28T14:15:17.129Z,18.40
2019-05-28T14:17:46.407Z,18.30
2019-05-28T14:20:18.547Z,18.30
2019-05-28T14:22:47.661Z,18.20
2019-05-28T14:25:18.404Z,18.20
2019-05-28T14:27:47.557Z,18.20
2019-05-28T14:30:17.903Z,18.20
2019-05-28T14:32:47.887Z,18.30
2019-05-28T14:35:17.867Z,18.30
2019-05-28T14:37:47.152Z,18.40
2019-05-28T14:40:17.302Z,18.40
2019-05-28T14:42:46.459Z,18.60
2019-05-28T14:45:16.024Z,18.70
2019-05-28T14:47:45.391Z,18.70
2019-05-28T14:50:15.205Z,18.80
2019-05-28T14:52:44.314Z,18.80
2019-05-28T14:55:16.074Z,18.70
2019-05-28T14:57:45.557Z,18.70
2019-05-28T15:00:15.263Z,18.60
2019-05-28T15:02:44.353Z,18.50
2019-05-28T15:05:14.563Z,18.40
2019-05-28T15:07:43.712Z,18.50
2019-05-28T15:10:13.512Z,18.30
2019-05-28T15:12:42.673Z,18.20
2019-05-28T15:15:12.526Z,18.10
2019-05-28T15:17:41.623Z,18.10
2019-05-28T15:20:13.471Z,18.00
2019-05-28T15:22:42.657Z,17.90
2019-05-28T15:25:12.971Z,17.90
2019-05-28T15:27:41.987Z,17.80
2019-05-28T15:30:13.384Z,17.70
2019-05-28T15:32:42.581Z,17.60
2019-05-28T15:35:12.809Z,17.70
2019-05-28T15:37:41.950Z,17.70
2019-05-28T15:40:11.746Z,17.60
2019-05-28T15:42:41.107Z,17.60
2019-05-28T15:45:10.904Z,17.50
2019-05-28T15:47:44.492Z,17.50
2019-05-28T15:50:13.379Z,17.50
2019-05-28T15:52:42.596Z,17.50
2019-05-28T15:55:13.498Z,17.40
2019-05-28T15:57:42.776Z,17.40
2019-05-28T16:00:15.584Z,17.30
2019-05-28T16:02:44.781Z,17.30
2019-05-28T16:05:14.494Z,17.20
2019-05-28T16:07:43.805Z,17.30
2019-05-28T16:10:13.412Z,17.10
2019-05-28T16:12:43.144Z,17.00
2019-05-28T16:15:13.074Z,17.00
2019-05-28T16:17:42.073Z,17.00
2019-05-28T16:20:11.695Z,16.90
2019-05-28T16:22:41.335Z,16.90
2019-05-28T16:25:11.766Z,16.90
2019-05-28T16:27:40.908Z,16.90
2019-05-28T16:30:11.326Z,16.90
2019-05-28T16:32:40.637Z,16.80
2019-05-28T16:35:10.139Z,16.80
2019-05-28T16:37:39.189Z,16.70
2019-05-28T16:40:16.950Z,16.60
2019-05-28T16:42:41.012Z,16.50
2019-05-28T16:45:10.912Z,16.50
2019-05-28T16:47:39.919Z,16.30
2019-05-28T16:50:13.392Z,16.30
2019-05-28T16:52:41.591Z,16.20
2019-05-28T16:55:10.891Z,16.10
2019-05-28T16:57:41.535Z,16.00
2019-05-28T17:00:10.769Z,16.00
2019-05-28T17:02:39.909Z,15.90
2019-05-28T17:05:09.891Z,15.80
2019-05-28T17:07:39.275Z,15.70
2019-05-28T17:10:10.082Z,15.70
2019-05-28T17:12:39.329Z,15.60
2019-05-28T17:15:09.628Z,15.50
2019-05-28T17:17:38.967Z,15.40
2019-05-28T17:20:09.958Z,15.40
2019-05-28T17:22:38.959Z,15.40
2019-05-28T17:25:11.798Z,15.40
2019-05-28T17:27:39.571Z,15.30
2019-05-28T17:30:18.833Z,15.20
2019-05-28T17:32:40.698Z,15.20
2019-05-28T17:35:10.231Z,15.20
2019-05-28T17:37:39.346Z,15.10
2019-05-28T17:40:10.380Z,15.10
2019-05-28T17:42:39.411Z,15.10
2019-05-28T17:45:10.022Z,15.00
2019-05-28T17:47:43.656Z,15.00
2019-05-28T17:50:10.364Z,15.00
2019-05-28T17:52:39.354Z,15.00
2019-05-28T17:55:08.654Z,14.90
2019-05-28T17:57:37.747Z,14.90
2019-05-28T18:00:07.481Z,14.90
2019-05-28T18:02:36.471Z,14.90
2019-05-28T18:05:06.903Z,14.90
2019-05-28T18:07:35.971Z,14.80
2019-05-28T18:10:05.606Z,14.80
2019-05-28T18:12:34.774Z,14.80
2019-05-28T18:15:04.126Z,14.80
2019-05-28T18:17:33.154Z,14.70
2019-05-28T18:20:02.162Z,14.60
2019-05-28T18:22:31.196Z,14.60
2019-05-28T18:25:00.155Z,14.50
2019-05-28T18:27:29.255Z,14.50
2019-05-28T18:29:58.328Z,14.40
2019-05-28T18:32:27.423Z,14.30
2019-05-28T18:34:56.536Z,14.30
2019-05-28T18:37:25.477Z,14.20
2019-05-28T18:39:54.478Z,14.20
2019-05-28T18:42:23.644Z,14.10
2019-05-28T18:44:52.608Z,14.10
2019-05-28T18:47:21.732Z,14.10
2019-05-28T18:49:50.728Z,14.10
2019-05-28T18:52:19.710Z,14.00
2019-05-28T18:54:48.818Z,14.00
2019-05-28T18:57:18.319Z,14.00
2019-05-28T18:59:47.499Z,14.00
2019-05-28T19:02:16.691Z,14.00
2019-05-28T19:04:45.685Z,14.00
2019-05-28T19:07:14.686Z,13.90
2019-05-28T19:09:43.904Z,13.90
2019-05-28T19:12:13.075Z,13.80
2019-05-28T19:14:42.188Z,13.80
2019-05-28T19:17:11.295Z,13.80
2019-05-28T19:19:40.343Z,13.70
2019-05-28T19:22:09.417Z,13.70
2019-05-28T19:24:38.465Z,13.70
2019-05-28T19:27:07.578Z,13.60
2019-05-28T19:29:36.734Z,13.50
2019-05-28T19:32:05.881Z,13.50
2019-05-28T19:34:35.166Z,13.60
2019-05-28T19:37:04.883Z,13.50
2019-05-28T19:39:34.132Z,13.50
2019-05-28T19:42:03.284Z,13.40
2019-05-28T19:44:32.258Z,13.40
2019-05-28T19:47:01.281Z,13.30
2019-05-28T19:49:30.276Z,13.20
2019-05-28T19:51:59.251Z,13.20
2019-05-28T19:54:28.239Z,13.10
2019-05-28T19:56:57.327Z,13.10
2019-05-28T19:59:26.342Z,13.10
2019-05-28T20:01:55.455Z,13.00
2019-05-28T20:04:24.437Z,13.00
2019-05-28T20:06:53.796Z,13.00
2019-05-28T20:09:22.891Z,12.90
2019-05-28T20:11:51.958Z,12.90
2019-05-28T20:14:20.887Z,12.90
2019-05-28T20:16:51.189Z,12.80
2019-05-28T20:19:20.410Z,12.80
2019-05-28T20:21:52.168Z,12.80
2019-05-28T20:24:20.202Z,12.70
2019-05-28T20:26:49.986Z,12.70
2019-05-28T20:29:21.717Z,12.70
2019-05-28T20:31:49.925Z,12.70
2019-05-28T20:34:19.354Z,12.60
2019-05-28T20:36:48.343Z,12.60
2019-05-28T20:39:17.575Z,12.50
2019-05-28T20:41:46.810Z,12.50
2019-05-28T20:44:19.095Z,12.50
2019-05-28T20:46:48.280Z,12.40
2019-05-28T20:49:17.733Z,12.40
2019-05-28T20:51:46.771Z,12.40
2019-05-28T20:54:15.819Z,12.40
2019-05-28T20:56:48.135Z,12.30
2019-05-28T20:59:16.007Z,12.30
2019-05-28T21:01:45.572Z,12.30
2019-05-28T21:04:14.734Z,12.20
2019-05-28T21:06:48.335Z,12.20
2019-05-28T21:09:17.668Z,12.20
2019-05-28T21:11:48.344Z,12.10
2019-05-28T21:14:21.576Z,12.10
2019-05-28T21:16:52.089Z,12.10
2019-05-28T21:19:22.562Z,12.10
2019-05-28T21:21:52.020Z,12.00
2019-05-28T21:24:21.486Z,12.00
2019-05-28T21:26:50.563Z,12.00
2019-05-28T21:29:19.983Z,12.00
2019-05-28T21:31:50.388Z,11.90
2019-05-28T21:34:20.045Z,11.90
2019-05-28T21:36:49.263Z,11.80
2019-05-28T21:39:18.725Z,11.80
2019-05-28T21:41:48.048Z,11.80
2019-05-28T21:44:17.335Z,11.80
2019-05-28T21:46:46.762Z,11.80
2019-05-28T21:49:17.863Z,11.80
2019-05-28T21:51:47.392Z,11.70
2019-05-28T21:54:17.156Z,11.70
2019-05-28T21:56:46.508Z,11.70
2019-05-28T21:59:15.767Z,11.70
2019-05-28T22:01:45.028Z,11.60
2019-05-28T22:04:14.304Z,11.60
2019-05-28T22:06:43.646Z,11.60
2019-05-28T22:09:13.234Z,11.50
2019-05-28T22:11:42.388Z,11.50
2019-05-28T22:14:11.621Z,11.50
2019-05-28T22:16:41.309Z,11.40
2019-05-28T22:19:10.602Z,11.40
2019-05-28T22:21:39.713Z,11.40
2019-05-28T22:24:09.215Z,11.40
2019-05-28T22:26:38.318Z,11.40
2019-05-28T22:29:08.784Z,11.30
2019-05-28T22:31:37.770Z,11.30
2019-05-28T22:34:07.303Z,11.30
2019-05-28T22:36:37.337Z,11.30
2019-05-28T22:39:09.497Z,11.30
2019-05-28T22:41:40.878Z,11.20
2019-05-28T22:44:11.615Z,11.20
2019-05-28T22:46:41.191Z,11.20
2019-05-28T22:49:13.113Z,11.20
2019-05-28T22:51:42.989Z,11.20
2019-05-28T22:54:15.551Z,11.20
2019-05-28T22:56:45.679Z,11.10
2019-05-28T22:59:15.387Z,11.10
2019-05-28T23:01:45.206Z,11.10
2019-05-28T23:04:14.815Z,11.10
2019-05-28T23:06:44.404Z,11.10
2019-05-28T23:09:13.521Z,11.10
2019-05-28T23:11:42.584Z,11.00
2019-05-28T23:14:11.626Z,11.00
2019-05-28T23:16:40.687Z,11.00
2019-05-28T23:19:10.935Z,11.00
2019-05-28T23:21:40.471Z,11.00
2019-05-28T23:24:09.606Z,11.00
2019-05-28T23:26:38.695Z,11.00
2019-05-28T23:29:07.926Z,11.00
2019-05-28T23:31:37.191Z,11.00
2019-05-28T23:34:06.422Z,11.00
2019-05-28T23:36:35.626Z,10.90
2019-05-28T23:39:06.981Z,10.90
2019-05-28T23:41:36.039Z,10.80
2019-05-28T23:44:05.911Z,10.80
2019-05-28T23:46:35.033Z,10.80
2019-05-28T23:49:04.266Z,10.70
2019-05-28T23:51:33.466Z,10.60
2019-05-28T23:54:02.601Z,10.50
2019-05-28T23:56:31.707Z,10.40
2019-05-28T23:59:00.818Z,10.40
